Time;durP1;ratioP1;P1;durP2;ratioP2;P2;SDS_P1;SDS_P2;PMS_P1;PMS_P2;Temp;Humidity;BMP_temperature;BMP_pressure;BME280_temperature;BME280_humidity;BME280_pressure;Samples;Min_cycle;Max_cycle;Signal;HPM_P1;HPM_P2
2021/09/13 00:00:16;;;;;;;7.72;4.20;;;;;;;;;;5072906;28;20036;-79
2021/09/13 00:02:42;;;;;;;10.77;4.93;;;;;;;;;;5073023;28;20040;-80
2021/09/13 00:05:09;;;;;;;8.68;4.53;;;;;;;;;;5073094;28;20055;-77
2021/09/13 00:07:35;;;;;;;7.80;4.18;;;;;;;;;;5069406;28;20031;-82
2021/09/13 00:10:08;;;;;;;10.48;4.60;;;;;;;;;;5075149;28;20516;-75
2021/09/13 00:12:34;;;;;;;7.65;4.10;;;;;;;;;;5074197;28;20139;-82
2021/09/13 00:15:00;;;;;;;8.88;4.43;;;;;;;;;;5074193;28;20086;-82
2021/09/13 00:17:26;;;;;;;6.95;4.50;;;;;;;;;;5068643;28;20024;-82
2021/09/13 00:19:52;;;;;;;7.45;3.97;;;;;;;;;;5072463;28;20044;-81
2021/09/13 00:22:18;;;;;;;6.93;4.45;;;;;;;;;;5072908;28;20037;-81
2021/09/13 00:24:44;;;;;;;5.90;4.05;;;;;;;;;;5073539;28;20021;-80
2021/09/13 00:27:10;;;;;;;5.57;4.05;;;;;;;;;;5073322;28;20051;-81
2021/09/13 00:29:36;;;;;;;8.48;3.88;;;;;;;;;;5064766;28;20028;-83
2021/09/13 00:32:03;;;;;;;5.70;4.05;;;;;;;;;;5067615;28;20064;-78
2021/09/13 00:34:29;;;;;;;7.32;3.53;;;;;;;;;;5068462;28;20029;-82
2021/09/13 00:36:55;;;;;;;8.02;3.72;;;;;;;;;;5055669;28;20035;-78
2021/09/13 00:39:21;;;;;;;6.50;3.83;;;;;;;;;;5070524;28;20071;-82
2021/09/13 00:41:53;;;;;;;8.13;4.07;;;;;;;;;;5072087;28;20040;-82
2021/09/13 00:44:19;;;;;;;8.10;4.05;;;;;;;;;;5054405;28;20025;-80
2021/09/13 00:46:50;;;;;;;7.80;4.00;;;;;;;;;;5064516;28;20036;-82
2021/09/13 00:49:16;;;;;;;5.18;4.00;;;;;;;;;;5054619;28;20046;-75
2021/09/13 00:51:42;;;;;;;5.70;3.58;;;;;;;;;;5077476;28;20039;-82
2021/09/13 00:54:13;;;;;;;8.98;4.03;;;;;;;;;;5072076;28;20024;-82
2021/09/13 00:56:42;;;;;;;8.90;4.15;;;;;;;;;;5054902;28;20024;-79
2021/09/13 00:59:08;;;;;;;9.25;3.70;;;;;;;;;;5057825;28;20578;-79
2021/09/13 01:01:48;;;;;;;7.07;3.40;;;;;;;;;;5062326;28;20053;-81
2021/09/13 01:07:36;;;;;;;6.65;3.85;;;;;;;;;;5071530;28;20389;-84
2021/09/13 01:10:10;;;;;;;6.10;3.47;;;;;;;;;;5053665;28;20059;-83
2021/09/13 01:12:42;;;;;;;6.25;3.60;;;;;;;;;;5054060;28;20028;-82
2021/09/13 01:15:09;;;;;;;6.47;3.78;;;;;;;;;;5054407;28;20055;-75
2021/09/13 01:17:39;;;;;;;8.35;3.70;;;;;;;;;;5072264;28;20048;-82
2021/09/13 01:20:08;;;;;;;7.07;4.10;;;;;;;;;;5054629;28;20086;-83
2021/09/13 01:22:35;;;;;;;5.60;3.85;;;;;;;;;;5054877;28;20510;-80
2021/09/13 01:25:02;;;;;;;7.32;4.00;;;;;;;;;;5072778;28;20077;-75
2021/09/13 01:27:28;;;;;;;5.50;3.95;;;;;;;;;;5072267;28;20107;-82
2021/09/13 01:30:05;;;;;;;7.53;3.92;;;;;;;;;;5072274;28;20071;-80
2021/09/13 01:32:31;;;;;;;10.73;4.18;;;;;;;;;;5054306;28;20028;-83
2021/09/13 01:34:57;;;;;;;10.30;3.90;;;;;;;;;;5072404;28;20021;-82
2021/09/13 01:37:26;;;;;;;6.65;3.80;;;;;;;;;;5072292;28;20068;-81
2021/09/13 01:39:58;;;;;;;9.35;4.13;;;;;;;;;;5054466;28;20358;-82
2021/09/13 01:42:24;;;;;;;5.43;3.78;;;;;;;;;;5054026;28;20486;-73
2021/09/13 01:44:50;;;;;;;7.75;4.15;;;;;;;;;;5072196;28;20028;-83
2021/09/13 01:47:16;;;;;;;8.65;3.95;;;;;;;;;;5071937;28;20104;-74
2021/09/13 01:49:42;;;;;;;5.60;3.67;;;;;;;;;;5072120;28;20031;-75
2021/09/13 01:52:08;;;;;;;7.93;4.00;;;;;;;;;;5072391;28;20036;-82
2021/09/13 01:54:34;;;;;;;6.90;3.70;;;;;;;;;;5053896;28;20029;-82
2021/09/13 01:57:00;;;;;;;9.05;4.22;;;;;;;;;;5072079;28;20465;-83
2021/09/13 01:59:26;;;;;;;6.78;4.40;;;;;;;;;;5071980;28;20056;-80
2021/09/13 02:01:52;;;;;;;6.20;4.03;;;;;;;;;;5071978;28;20033;-82
2021/09/13 02:04:18;;;;;;;7.82;4.28;;;;;;;;;;5053505;28;20119;-81
2021/09/13 02:06:44;;;;;;;10.48;4.32;;;;;;;;;;5071175;28;20029;-79
2021/09/13 02:09:11;;;;;;;6.95;3.90;;;;;;;;;;5071904;28;20029;-81
2021/09/13 02:11:37;;;;;;;5.97;4.20;;;;;;;;;;5072196;28;20031;-82
2021/09/13 02:14:03;;;;;;;8.38;4.15;;;;;;;;;;5053992;28;20028;-82
2021/09/13 02:16:29;;;;;;;6.60;4.30;;;;;;;;;;5071499;28;20071;-81
2021/09/13 02:18:55;;;;;;;7.13;4.35;;;;;;;;;;5071722;28;20023;-83
2021/09/13 02:21:21;;;;;;;6.60;4.22;;;;;;;;;;5053076;28;20075;-82
2021/09/13 02:23:47;;;;;;;6.88;4.07;;;;;;;;;;5072118;28;20466;-83
2021/09/13 02:26:13;;;;;;;6.82;4.00;;;;;;;;;;5071472;28;20470;-81
2021/09/13 02:28:40;;;;;;;7.22;3.90;;;;;;;;;;5071840;28;20512;-81
2021/09/13 02:31:06;;;;;;;6.32;3.90;;;;;;;;;;5053755;28;20037;-74
2021/09/13 02:33:32;;;;;;;7.03;3.97;;;;;;;;;;5053978;28;20181;-74
2021/09/13 02:35:58;;;;;;;8.65;3.80;;;;;;;;;;5070892;28;20036;-82
2021/09/13 02:38:24;;;;;;;12.30;4.50;;;;;;;;;;5071811;28;20025;-74
2021/09/13 02:40:51;;;;;;;7.82;4.32;;;;;;;;;;5071495;28;20028;-77
2021/09/13 02:43:17;;;;;;;7.07;3.90;;;;;;;;;;5071571;28;20040;-82
2021/09/13 02:45:44;;;;;;;7.65;4.10;;;;;;;;;;5075688;28;20032;-80
2021/09/13 02:48:10;;;;;;;7.85;3.90;;;;;;;;;;5053424;28;20497;-78
2021/09/13 02:50:37;;;;;;;6.85;4.13;;;;;;;;;;5053780;28;20029;-81
2021/09/13 02:53:03;;;;;;;6.25;4.10;;;;;;;;;;5071511;28;20036;-75
2021/09/13 02:55:29;;;;;;;10.30;4.60;;;;;;;;;;5071887;28;20024;-79
2021/09/13 02:57:58;;;;;;;8.63;4.30;;;;;;;;;;5070968;28;20056;-75
2021/09/13 03:00:24;;;;;;;6.88;4.10;;;;;;;;;;5053117;28;20486;-76
2021/09/13 03:02:50;;;;;;;7.32;4.18;;;;;;;;;;5071200;28;20066;-75
2021/09/13 03:05:16;;;;;;;8.55;4.20;;;;;;;;;;5070880;28;20020;-74
2021/09/13 03:07:42;;;;;;;11.13;4.28;;;;;;;;;;5070444;28;20474;-75
2021/09/13 03:10:09;;;;;;;6.15;3.95;;;;;;;;;;5070804;28;20029;-81
2021/09/13 03:12:35;;;;;;;9.20;4.40;;;;;;;;;;5053583;28;20020;-80
2021/09/13 03:15:02;;;;;;;9.48;4.40;;;;;;;;;;5070938;28;20059;-81
2021/09/13 03:17:28;;;;;;;9.23;4.32;;;;;;;;;;5058626;28;20024;-79
2021/09/13 03:19:54;;;;;;;7.80;4.38;;;;;;;;;;5073101;28;20024;-75
2021/09/13 03:22:20;;;;;;;6.70;4.32;;;;;;;;;;5069917;28;20116;-79
2021/09/13 03:24:46;;;;;;;8.23;4.30;;;;;;;;;;5079921;28;20021;-79
2021/09/13 03:27:12;;;;;;;9.23;4.30;;;;;;;;;;5076439;28;20029;-79
2021/09/13 03:29:39;;;;;;;8.63;4.20;;;;;;;;;;5075029;28;20047;-77
2021/09/13 03:32:05;;;;;;;10.07;4.60;;;;;;;;;;5056469;28;20067;-74
2021/09/13 03:34:31;;;;;;;9.10;4.25;;;;;;;;;;5074379;28;20025;-81
2021/09/13 03:36:59;;;;;;;6.63;4.65;;;;;;;;;;5056672;28;20028;-75
2021/09/13 03:39:26;;;;;;;8.02;4.35;;;;;;;;;;5074528;28;20085;-75
2021/09/13 03:41:52;;;;;;;8.45;4.10;;;;;;;;;;5074496;28;20531;-80
2021/09/13 03:44:18;;;;;;;7.60;4.07;;;;;;;;;;5056504;28;20029;-79
2021/09/13 03:46:44;;;;;;;8.98;4.32;;;;;;;;;;5074156;28;20401;-79
2021/09/13 03:49:10;;;;;;;7.53;4.32;;;;;;;;;;5074573;28;20486;-81
2021/09/13 03:51:36;;;;;;;8.52;4.22;;;;;;;;;;5069913;28;20367;-77
2021/09/13 03:54:02;;;;;;;12.60;4.60;;;;;;;;;;5064078;28;20572;-81
2021/09/13 03:56:28;;;;;;;16.73;5.03;;;;;;;;;;5073330;28;20033;-81
2021/09/13 03:58:54;;;;;;;10.70;4.78;;;;;;;;;;5074341;28;20103;-81
2021/09/13 04:01:21;;;;;;;9.18;4.80;;;;;;;;;;5078432;28;20044;-81
2021/09/13 04:03:49;;;;;;;11.32;4.70;;;;;;;;;;5055745;28;20032;-80
2021/09/13 04:11:37;;;;;;;8.85;4.30;;;;;;;;;;5074056;28;20029;-80
2021/09/13 04:14:03;;;;;;;9.65;4.43;;;;;;;;;;5074050;28;20029;-81
2021/09/13 04:16:30;;;;;;;8.52;4.40;;;;;;;;;;5073726;28;20079;-80
2021/09/13 04:18:56;;;;;;;9.40;4.47;;;;;;;;;;5069058;28;20029;-82
2021/09/13 04:21:22;;;;;;;13.38;4.88;;;;;;;;;;5070897;28;20032;-81
2021/09/13 04:23:50;;;;;;;16.23;5.10;;;;;;;;;;5073811;28;20070;-81
2021/09/13 04:26:16;;;;;;;18.10;5.13;;;;;;;;;;5055560;28;20074;-77
2021/09/13 04:28:43;;;;;;;18.73;5.85;;;;;;;;;;5073980;28;20036;-80
2021/09/13 04:31:09;;;;;;;23.80;6.43;;;;;;;;;;5058346;28;20071;-81
2021/09/13 04:33:35;;;;;;;10.27;4.70;;;;;;;;;;5057217;28;20024;-81
2021/09/13 04:36:01;;;;;;;11.00;5.18;;;;;;;;;;5062940;28;20024;-80
2021/09/13 04:38:27;;;;;;;7.80;4.53;;;;;;;;;;5055357;28;20028;-76
2021/09/13 04:40:54;;;;;;;11.85;4.80;;;;;;;;;;5077072;28;20361;-82
2021/09/13 04:43:24;;;;;;;13.32;4.80;;;;;;;;;;5058988;28;20041;-83
2021/09/13 04:45:54;;;;;;;9.02;4.95;;;;;;;;;;5063485;28;20044;-81
2021/09/13 04:48:20;;;;;;;13.45;4.97;;;;;;;;;;5055384;28;20021;-78
2021/09/13 04:50:46;;;;;;;14.70;5.25;;;;;;;;;;5073905;28;20029;-80
2021/09/13 04:53:12;;;;;;;18.08;4.93;;;;;;;;;;5055153;28;20020;-80
2021/09/13 04:55:38;;;;;;;14.95;5.28;;;;;;;;;;5073188;28;20043;-82
2021/09/13 04:58:04;;;;;;;15.30;4.97;;;;;;;;;;5055363;28;20025;-81
2021/09/13 05:00:30;;;;;;;15.20;5.18;;;;;;;;;;5072630;28;20036;-80
2021/09/13 05:02:56;;;;;;;18.02;4.95;;;;;;;;;;5057845;28;20079;-74
2021/09/13 05:05:28;;;;;;;10.77;4.68;;;;;;;;;;5065927;28;20066;-72
2021/09/13 05:07:54;;;;;;;10.48;5.10;;;;;;;;;;5055395;28;20025;-78
2021/09/13 05:10:20;;;;;;;12.45;5.22;;;;;;;;;;5071854;28;20036;-75
2021/09/13 05:12:53;;;;;;;27.08;5.90;;;;;;;;;;5072094;28;20037;-73
2021/09/13 05:15:39;;;;;;;24.83;6.38;;;;;;;;;;5054146;28;20442;-71
2021/09/13 05:18:05;;;;;;;10.07;4.68;;;;;;;;;;5064991;28;20099;-73
2021/09/13 05:20:31;;;;;;;12.85;5.00;;;;;;;;;;5071382;28;20025;-74
2021/09/13 05:22:57;;;;;;;11.15;5.00;;;;;;;;;;5072610;28;20477;-75
2021/09/13 05:25:23;;;;;;;11.25;5.40;;;;;;;;;;5072367;28;20095;-70
2021/09/13 05:27:49;;;;;;;16.10;6.38;;;;;;;;;;5072282;28;20059;-68
2021/09/13 05:30:16;;;;;;;19.02;7.03;;;;;;;;;;5072668;28;20028;-76
2021/09/13 05:32:42;;;;;;;23.17;7.75;;;;;;;;;;5072379;28;20048;-74
2021/09/13 05:35:08;;;;;;;16.70;8.15;;;;;;;;;;5071380;28;20067;-73
2021/09/13 05:37:34;;;;;;;20.00;8.45;;;;;;;;;;5070772;28;20031;-73
2021/09/13 05:40:03;;;;;;;17.15;8.50;;;;;;;;;;5069893;28;20064;-73
2021/09/13 05:42:29;;;;;;;21.20;7.60;;;;;;;;;;5071444;28;20021;-77
2021/09/13 05:44:55;;;;;;;18.23;7.07;;;;;;;;;;5072035;28;20091;-77
2021/09/13 05:47:23;;;;;;;17.70;6.30;;;;;;;;;;5072360;28;20035;-68
2021/09/13 05:49:49;;;;;;;14.68;6.05;;;;;;;;;;5071902;28;20146;-71
2021/09/13 05:52:16;;;;;;;17.17;6.10;;;;;;;;;;5072195;28;20040;-74
2021/09/13 05:54:42;;;;;;;18.35;4.93;;;;;;;;;;5072076;28;20433;-76
2021/09/13 05:57:08;;;;;;;15.43;5.95;;;;;;;;;;5072219;28;20028;-74
2021/09/13 05:59:35;;;;;;;16.90;5.28;;;;;;;;;;5071833;28;20028;-77
2021/09/13 06:02:02;;;;;;;17.00;5.05;;;;;;;;;;5069274;28;20045;-76
2021/09/13 06:04:32;;;;;;;11.43;5.28;;;;;;;;;;5070865;28;20067;-75
2021/09/13 06:06:58;;;;;;;16.50;5.65;;;;;;;;;;5070827;28;20116;-78
2021/09/13 06:09:26;;;;;;;18.58;5.90;;;;;;;;;;5071834;28;20082;-68
2021/09/13 06:11:54;;;;;;;13.82;6.18;;;;;;;;;;5070427;28;20569;-73
2021/09/13 06:14:20;;;;;;;15.23;6.72;;;;;;;;;;5071271;28;20024;-76
2021/09/13 06:16:46;;;;;;;9.82;5.68;;;;;;;;;;5071270;28;20025;-68
2021/09/13 06:19:13;;;;;;;11.27;5.30;;;;;;;;;;5070145;28;20125;-68
2021/09/13 06:21:39;;;;;;;14.13;5.85;;;;;;;;;;5069895;28;20458;-68
2021/09/13 06:24:05;;;;;;;12.27;6.00;;;;;;;;;;5069503;28;20025;-71
2021/09/13 06:26:31;;;;;;;9.63;5.57;;;;;;;;;;5063505;28;20025;-73
2021/09/13 06:28:57;;;;;;;10.32;5.82;;;;;;;;;;5070668;28;20032;-70
2021/09/13 06:31:23;;;;;;;12.57;6.63;;;;;;;;;;5071055;28;20086;-70
2021/09/13 06:33:53;;;;;;;17.92;6.25;;;;;;;;;;5053013;28;20399;-74
2021/09/13 06:36:19;;;;;;;20.10;9.63;;;;;;;;;;5051392;28;20028;-75
2021/09/13 06:38:45;;;;;;;16.67;9.40;;;;;;;;;;5071453;28;20047;-76
2021/09/13 06:41:12;;;;;;;17.30;7.88;;;;;;;;;;5052955;28;20389;-69
2021/09/13 06:43:38;;;;;;;10.02;6.97;;;;;;;;;;5066782;28;20063;-70
2021/09/13 06:46:24;;;;;;;15.82;8.05;;;;;;;;;;5070820;28;20550;-70
2021/09/13 06:48:51;;;;;;;34.28;9.48;;;;;;;;;;5064766;28;20033;-73
2021/09/13 06:51:22;;;;;;;24.83;7.65;;;;;;;;;;5070931;28;20081;-72
2021/09/13 06:53:49;;;;;;;12.70;7.90;;;;;;;;;;5051023;28;20040;-71
2021/09/13 06:56:15;;;;;;;15.27;8.30;;;;;;;;;;5075087;28;20020;-75
2021/09/13 06:58:41;;;;;;;14.77;7.82;;;;;;;;;;5077315;28;20764;-76
2021/09/13 07:01:07;;;;;;;15.40;6.55;;;;;;;;;;5060608;28;20094;-74
2021/09/13 07:03:34;;;;;;;14.70;6.43;;;;;;;;;;5054093;28;20037;-71
2021/09/13 07:06:00;;;;;;;15.48;6.32;;;;;;;;;;5054596;28;20036;-73
2021/09/13 07:08:26;;;;;;;9.25;5.30;;;;;;;;;;5054738;28;20020;-72
2021/09/13 07:10:54;;;;;;;12.45;6.13;;;;;;;;;;5054301;28;20025;-74
2021/09/13 07:13:20;;;;;;;21.38;7.30;;;;;;;;;;5054992;28;20082;-73
2021/09/13 07:15:46;;;;;;;11.35;6.72;;;;;;;;;;5055798;28;20406;-74
2021/09/13 07:18:15;;;;;;;13.55;6.65;;;;;;;;;;5055368;28;20390;-71
2021/09/13 07:20:41;;;;;;;13.70;7.20;;;;;;;;;;5053376;28;20104;-72
2021/09/13 07:23:07;;;;;;;13.20;6.40;;;;;;;;;;5054972;28;20048;-71
2021/09/13 07:25:33;;;;;;;7.88;5.40;;;;;;;;;;5054780;28;20505;-69
2021/09/13 07:28:00;;;;;;;10.60;5.90;;;;;;;;;;5054608;28;20037;-74
2021/09/13 07:30:26;;;;;;;11.95;5.57;;;;;;;;;;5054204;28;20052;-74
2021/09/13 07:32:53;;;;;;;10.02;4.63;;;;;;;;;;5054627;28;20031;-71
2021/09/13 07:35:19;;;;;;;9.25;4.65;;;;;;;;;;5053940;28;20410;-77
2021/09/13 07:37:45;;;;;;;10.15;4.90;;;;;;;;;;5052284;28;20105;-77
2021/09/13 07:40:11;;;;;;;12.40;5.30;;;;;;;;;;5054384;28;20025;-70
2021/09/13 07:42:40;;;;;;;8.40;4.60;;;;;;;;;;5051300;28;20123;-71
2021/09/13 07:45:09;;;;;;;15.15;5.53;;;;;;;;;;5054302;28;20651;-71
2021/09/13 07:47:36;;;;;;;10.40;5.10;;;;;;;;;;5053696;28;20036;-70
2021/09/13 07:50:02;;;;;;;7.45;5.05;;;;;;;;;;5053183;28;20021;-75
2021/09/13 07:52:28;;;;;;;7.22;4.60;;;;;;;;;;5052400;28;20078;-71
2021/09/13 07:54:54;;;;;;;10.15;5.75;;;;;;;;;;5053517;28;20067;-72
2021/09/13 07:57:20;;;;;;;8.07;4.75;;;;;;;;;;5053850;28;20494;-72
2021/09/13 07:59:46;;;;;;;12.60;4.53;;;;;;;;;;5056436;28;20029;-74
2021/09/13 08:02:15;;;;;;;11.70;4.60;;;;;;;;;;5073338;28;20047;-73
2021/09/13 08:04:41;;;;;;;11.48;4.85;;;;;;;;;;5058266;28;20450;-73
2021/09/13 08:07:07;;;;;;;8.43;4.63;;;;;;;;;;5071883;28;20024;-70
2021/09/13 08:09:36;;;;;;;9.07;4.70;;;;;;;;;;5072089;28;20021;-70
2021/09/13 08:12:02;;;;;;;8.90;4.75;;;;;;;;;;5072016;28;20141;-68
2021/09/13 08:14:30;;;;;;;8.57;4.70;;;;;;;;;;5068888;28;20450;-70
2021/09/13 08:16:56;;;;;;;7.72;4.53;;;;;;;;;;5073568;28;20483;-79
2021/09/13 08:19:23;;;;;;;7.68;4.88;;;;;;;;;;5073111;28;20031;-75
2021/09/13 08:21:49;;;;;;;8.30;4.72;;;;;;;;;;5070013;28;20075;-74
2021/09/13 08:24:15;;;;;;;8.57;4.90;;;;;;;;;;5073551;28;20027;-76
2021/09/13 08:26:41;;;;;;;8.20;4.57;;;;;;;;;;5073080;28;20434;-75
2021/09/13 08:29:14;;;;;;;12.15;4.90;;;;;;;;;;5072604;28;20031;-77
2021/09/13 08:31:41;;;;;;;18.20;5.57;;;;;;;;;;5071927;28;20020;-77
2021/09/13 08:34:07;;;;;;;8.82;4.50;;;;;;;;;;5073142;28;20056;-74
2021/09/13 08:36:33;;;;;;;15.32;5.60;;;;;;;;;;5071885;28;20075;-73
2021/09/13 08:39:01;;;;;;;13.38;5.15;;;;;;;;;;5073008;28;20538;-68
2021/09/13 08:41:28;;;;;;;15.15;4.85;;;;;;;;;;5072680;28;20025;-74
2021/09/13 08:43:54;;;;;;;11.60;4.90;;;;;;;;;;5065841;28;20028;-72
2021/09/13 08:46:26;;;;;;;9.70;5.13;;;;;;;;;;5071986;28;20103;-78
2021/09/13 08:49:00;;;;;;;9.05;4.60;;;;;;;;;;5054564;28;20036;-66
2021/09/13 08:51:30;;;;;;;8.68;4.88;;;;;;;;;;5070924;28;20039;-68
2021/09/13 08:53:57;;;;;;;8.77;4.60;;;;;;;;;;5071928;28;20036;-69
2021/09/13 08:56:35;;;;;;;9.57;4.70;;;;;;;;;;5071254;28;20386;-67
2021/09/13 08:59:03;;;;;;;7.05;4.47;;;;;;;;;;5072927;28;20478;-69
2021/09/13 09:01:29;;;;;;;11.05;5.05;;;;;;;;;;5069317;28;20048;-67
2021/09/13 09:04:03;;;;;;;7.63;4.65;;;;;;;;;;5072670;28;20493;-70
2021/09/13 09:06:32;;;;;;;11.65;4.32;;;;;;;;;;5052692;28;20024;-74
2021/09/13 09:09:19;;;;;;;8.55;4.07;;;;;;;;;;5072241;28;20512;-75
2021/09/13 09:12:00;;;;;;;9.60;4.60;;;;;;;;;;5071808;28;20055;-73
2021/09/13 09:14:35;;;;;;;9.40;4.47;;;;;;;;;;5070476;28;20028;-74
2021/09/13 09:17:04;;;;;;;14.98;4.68;;;;;;;;;;5070698;28;20082;-72
2021/09/13 09:19:30;;;;;;;9.50;4.55;;;;;;;;;;5072157;28;20082;-73
2021/09/13 09:21:57;;;;;;;7.43;4.47;;;;;;;;;;5071765;28;20021;-74
2021/09/13 09:24:38;;;;;;;10.68;4.45;;;;;;;;;;5054911;28;20032;-77
2021/09/13 09:27:17;;;;;;;7.72;4.30;;;;;;;;;;5068138;28;20029;-77
2021/09/13 09:29:43;;;;;;;10.57;5.45;;;;;;;;;;5047891;28;20049;-78
2021/09/13 09:32:09;;;;;;;8.88;4.07;;;;;;;;;;5031005;28;20503;-74
2021/09/13 09:34:37;;;;;;;8.63;4.20;;;;;;;;;;5049936;28;20514;-79
2021/09/13 09:37:09;;;;;;;7.43;4.25;;;;;;;;;;5048424;28;20482;-73
2021/09/13 09:39:49;;;;;;;10.27;4.88;;;;;;;;;;5049685;28;20084;-75
2021/09/13 09:42:28;;;;;;;7.32;4.45;;;;;;;;;;5047032;28;20032;-72
2021/09/13 09:44:54;;;;;;;7.22;4.53;;;;;;;;;;5033772;28;20060;-77
2021/09/13 09:47:21;;;;;;;16.77;5.15;;;;;;;;;;5049666;28;20033;-76
2021/09/13 09:49:47;;;;;;;9.98;4.35;;;;;;;;;;5049094;28;20037;-81
2021/09/13 09:52:26;;;;;;;9.45;4.57;;;;;;;;;;5048860;28;20029;-77
2021/09/13 09:55:05;;;;;;;8.07;4.47;;;;;;;;;;5047916;28;20040;-82
2021/09/13 09:57:31;;;;;;;11.38;4.43;;;;;;;;;;5048486;28;20036;-68
2021/09/13 09:59:57;;;;;;;7.18;4.30;;;;;;;;;;5052830;28;20129;-68
2021/09/13 10:02:24;;;;;;;10.40;4.57;;;;;;;;;;5070852;28;20036;-69
2021/09/13 10:05:00;;;;;;;7.57;4.50;;;;;;;;;;5071298;28;20036;-71
2021/09/13 10:07:26;;;;;;;9.75;4.70;;;;;;;;;;5071500;28;20028;-76
2021/09/13 10:09:58;;;;;;;11.02;4.70;;;;;;;;;;5070128;28;20040;-76
2021/09/13 10:12:30;;;;;;;7.30;4.40;;;;;;;;;;5053144;28;20031;-71
2021/09/13 10:15:04;;;;;;;9.88;4.65;;;;;;;;;;5051566;28;20595;-72
2021/09/13 10:17:31;;;;;;;9.18;4.78;;;;;;;;;;5073050;28;20029;-76
2021/09/13 10:19:57;;;;;;;7.78;5.43;;;;;;;;;;5052871;28;20042;-74
2021/09/13 10:22:24;;;;;;;9.60;4.63;;;;;;;;;;5070250;28;20024;-77
2021/09/13 10:24:51;;;;;;;14.52;5.68;;;;;;;;;;5070796;28;20801;-76
2021/09/13 10:27:20;;;;;;;9.25;4.30;;;;;;;;;;5067149;28;20056;-75
2021/09/13 10:29:46;;;;;;;6.00;4.20;;;;;;;;;;5070776;28;20020;-70
2021/09/13 10:32:14;;;;;;;8.88;4.13;;;;;;;;;;5075531;28;20552;-74
2021/09/13 10:34:40;;;;;;;8.48;4.65;;;;;;;;;;5075352;28;20062;-74
2021/09/13 10:37:16;;;;;;;7.75;4.47;;;;;;;;;;5075883;28;20074;-76
2021/09/13 10:39:49;;;;;;;7.57;4.25;;;;;;;;;;5075490;28;20028;-74
2021/09/13 10:42:15;;;;;;;;;;;;;;;;;;5068950;28;20044;-69
2021/09/13 10:44:41;;;;;;;10.50;4.70;;;;;;;;;;5074261;28;19912;-70
2021/09/13 10:47:07;;;;;;;11.02;4.28;;;;;;;;;;5074659;28;20024;-69
2021/09/13 10:49:33;;;;;;;8.57;4.35;;;;;;;;;;5073700;28;20021;-69
2021/09/13 10:52:18;;;;;;;8.82;4.50;;;;;;;;;;5074090;28;20055;-69
2021/09/13 10:55:03;;;;;;;11.90;4.13;;;;;;;;;;5055653;28;20056;-69
2021/09/13 10:57:47;;;;;;;7.70;4.10;;;;;;;;;;5065956;28;20082;-76
2021/09/13 11:00:13;;;;;;;7.50;4.20;;;;;;;;;;5072751;28;20044;-72
2021/09/13 11:02:39;;;;;;;6.85;4.63;;;;;;;;;;5069179;28;20107;-71
2021/09/13 11:05:21;;;;;;;7.05;4.20;;;;;;;;;;5071759;28;20092;-71
2021/09/13 11:08:13;;;;;;;7.45;4.50;;;;;;;;;;5073047;28;20177;-75
2021/09/13 11:10:48;;;;;;;9.57;4.40;;;;;;;;;;4970720;28;20129;-72
2021/09/13 11:13:17;;;;;;;13.20;4.90;;;;;;;;;;4974685;28;20038;-74
2021/09/13 11:15:49;;;;;;;10.75;4.15;;;;;;;;;;4976333;28;20051;-74
2021/09/13 11:18:33;;;;;;;5.47;3.80;;;;;;;;;;4972907;28;20476;-71
2021/09/13 11:21:18;;;;;;;7.50;4.18;;;;;;;;;;4976060;28;20408;-71
2021/09/13 11:24:16;;;;;;;11.80;4.45;;;;;;;;;;4974063;28;20074;-74
2021/09/13 11:26:59;;;;;;;7.72;4.10;;;;;;;;;;4976354;28;20448;-75
2021/09/13 11:29:43;;;;;;;6.43;4.17;;;;;;;;;;4980930;28;20562;-79
2021/09/13 11:32:13;;;;;;;8.27;4.00;;;;;;;;;;4958104;28;20031;-71
2021/09/13 11:34:41;;;;;;;8.13;3.80;;;;;;;;;;4976690;28;20034;-71
2021/09/13 11:37:08;;;;;;;10.13;4.30;;;;;;;;;;4987478;28;20030;-69
2021/09/13 11:39:34;;;;;;;8.07;4.30;;;;;;;;;;4980151;28;20023;-74
2021/09/13 11:42:02;;;;;;;9.02;4.22;;;;;;;;;;4970517;28;20581;-67
2021/09/13 11:44:29;;;;;;;12.48;4.38;;;;;;;;;;4981751;28;20507;-68
2021/09/13 11:47:00;;;;;;;9.65;4.38;;;;;;;;;;5003303;28;20041;-66
2021/09/13 11:49:28;;;;;;;9.15;4.35;;;;;;;;;;5072860;28;20066;-66
2021/09/13 11:52:11;;;;;;;10.13;4.55;;;;;;;;;;5065350;28;20034;-69
2021/09/13 11:54:45;;;;;;;11.35;4.80;;;;;;;;;;5073515;28;20031;-70
2021/09/13 11:57:20;;;;;;;8.07;4.22;;;;;;;;;;5074494;28;20024;-67
2021/09/13 12:00:54;;;;;;;10.60;4.60;;;;;;;;;;5074710;27;20505;-74
2021/09/13 12:03:14;;;;;;;8.55;4.47;;;;;;;;;;5070829;28;20106;-70
2021/09/13 12:05:41;;;;;;;5.80;4.10;;;;;;;;;;5070381;28;20025;-72
2021/09/13 12:08:10;;;;;;;7.18;4.13;;;;;;;;;;5074041;28;20031;-74
2021/09/13 12:10:45;;;;;;;9.02;4.55;;;;;;;;;;5060410;28;20017;-71
2021/09/13 12:13:12;;;;;;;9.98;4.45;;;;;;;;;;5073270;28;20516;-73
2021/09/13 12:15:51;;;;;;;;;;;;;;;;;;;;;
2021/09/13 12:18:20;;;;;;;10.07;4.20;;;;;;;;;;5070394;28;20041;-74
2021/09/13 12:24:10;;;;;;;5.88;4.05;;;;;;;;;;4983584;28;20065;-76
2021/09/13 12:26:44;;;;;;;8.57;4.43;;;;;;;;;;4990946;28;20054;-74
2021/09/13 12:29:10;;;;;;;10.05;4.18;;;;;;;;;;4991930;28;20483;-67
2021/09/13 12:31:37;;;;;;;10.02;4.30;;;;;;;;;;4992074;28;20100;-69
2021/09/13 12:34:05;;;;;;;8.55;4.13;;;;;;;;;;4982845;28;20058;-67
2021/09/13 12:36:31;;;;;;;7.65;3.92;;;;;;;;;;4989592;28;20423;-66
2021/09/13 12:38:58;;;;;;;5.93;3.67;;;;;;;;;;4987997;28;20037;-68
2021/09/13 12:41:35;;;;;;;9.02;4.32;;;;;;;;;;4991368;28;20035;-71
2021/09/13 12:44:43;;;;;;;10.35;4.45;;;;;;;;;;4992040;28;20024;-72
2021/09/13 12:47:09;;;;;;;10.30;4.15;;;;;;;;;;4948827;28;20043;-74
2021/09/13 12:49:44;;;;;;;9.13;4.00;;;;;;;;;;4958217;28;20118;-73
2021/09/13 12:52:46;;;;;;;10.30;4.50;;;;;;;;;;4952861;28;20058;-75
2021/09/13 12:55:20;;;;;;;9.57;3.80;;;;;;;;;;4952505;29;20082;-72
2021/09/13 12:57:48;;;;;;;8.88;4.30;;;;;;;;;;4952779;28;20043;-75
2021/09/13 13:00:15;;;;;;;6.82;3.60;;;;;;;;;;4966338;28;20500;-70
2021/09/13 13:02:46;;;;;;;8.90;3.88;;;;;;;;;;5001820;28;20539;-74
2021/09/13 13:05:31;;;;;;;6.78;3.90;;;;;;;;;;5002750;28;20123;-71
2021/09/13 13:08:00;;;;;;;11.40;4.43;;;;;;;;;;5000706;28;20391;-74
2021/09/13 13:10:26;;;;;;;14.48;4.38;;;;;;;;;;5010438;28;20033;-74
2021/09/13 13:12:52;;;;;;;10.20;3.97;;;;;;;;;;5003685;28;20096;-70
2021/09/13 13:15:18;;;;;;;7.55;3.90;;;;;;;;;;5016074;28;20102;-70
2021/09/13 13:17:47;;;;;;;8.93;3.97;;;;;;;;;;5011132;28;20487;-70
2021/09/13 13:20:15;;;;;;;11.60;4.30;;;;;;;;;;5005826;28;20480;-74
2021/09/13 13:22:41;;;;;;;17.42;4.30;;;;;;;;;;5013715;28;20042;-75
2021/09/13 13:25:07;;;;;;;30.20;4.93;;;;;;;;;;5052809;28;20053;-75
2021/09/13 13:27:33;;;;;;;10.95;3.92;;;;;;;;;;5052481;28;20029;-75
2021/09/13 13:30:01;;;;;;;8.02;3.53;;;;;;;;;;5052598;28;20039;-73
2021/09/13 13:32:27;;;;;;;9.25;4.05;;;;;;;;;;5035023;28;20021;-74
2021/09/13 13:34:53;;;;;;;11.00;4.45;;;;;;;;;;5052028;28;20013;-73
2021/09/13 13:37:19;;;;;;;8.70;3.67;;;;;;;;;;5052211;28;20029;-75
2021/09/13 13:39:47;;;;;;;6.40;3.88;;;;;;;;;;5052185;28;20030;-73
2021/09/13 13:42:13;;;;;;;7.65;3.97;;;;;;;;;;5051938;28;20037;-74
2021/09/13 13:44:40;;;;;;;9.48;4.00;;;;;;;;;;5052924;28;20025;-73
2021/09/13 13:47:08;;;;;;;6.78;3.70;;;;;;;;;;5035082;28;20025;-75
2021/09/13 13:49:34;;;;;;;7.90;3.92;;;;;;;;;;5051566;28;20024;-71
2021/09/13 13:52:00;;;;;;;9.43;4.00;;;;;;;;;;5052396;28;20078;-75
2021/09/13 13:54:26;;;;;;;10.52;4.00;;;;;;;;;;5052223;28;20373;-74
2021/09/13 13:56:52;;;;;;;10.70;4.70;;;;;;;;;;5052286;28;20029;-75
2021/09/13 13:59:23;;;;;;;9.95;3.95;;;;;;;;;;5052856;28;20051;-76
2021/09/13 14:01:49;;;;;;;10.15;4.20;;;;;;;;;;5067120;28;20044;-71
2021/09/13 14:04:15;;;;;;;12.52;4.40;;;;;;;;;;5069844;28;20070;-75
2021/09/13 14:06:41;;;;;;;8.48;3.63;;;;;;;;;;5071538;28;20090;-73
2021/09/13 14:09:07;;;;;;;25.67;4.78;;;;;;;;;;5072267;28;20029;-70
2021/09/13 14:11:33;;;;;;;7.07;3.75;;;;;;;;;;5071548;28;20099;-74
2021/09/13 14:13:59;;;;;;;10.20;4.05;;;;;;;;;;5072082;28;20481;-75
2021/09/13 14:16:26;;;;;;;13.20;3.90;;;;;;;;;;5071978;28;20028;-75
2021/09/13 14:18:54;;;;;;;23.17;4.75;;;;;;;;;;5072081;28;20091;-74
2021/09/13 14:21:20;;;;;;;8.25;3.92;;;;;;;;;;5053408;28;20029;-74
2021/09/13 14:23:46;;;;;;;10.27;3.80;;;;;;;;;;5071485;28;20090;-72
2021/09/13 14:26:12;;;;;;;5.85;3.72;;;;;;;;;;5053874;28;20086;-72
2021/09/13 14:28:41;;;;;;;9.63;4.18;;;;;;;;;;5071791;28;20021;-68
2021/09/13 14:31:07;;;;;;;12.23;4.05;;;;;;;;;;5071714;28;20481;-75
2021/09/13 14:33:35;;;;;;;10.00;4.30;;;;;;;;;;5070082;28;20028;-69
2021/09/13 14:36:01;;;;;;;8.02;4.00;;;;;;;;;;5071525;28;20363;-75
2021/09/13 14:38:27;;;;;;;10.07;3.95;;;;;;;;;;5071033;28;20490;-71
2021/09/13 14:40:53;;;;;;;9.57;4.10;;;;;;;;;;5071843;28;20385;-75
2021/09/13 14:43:19;;;;;;;10.23;4.40;;;;;;;;;;5071656;28;20043;-72
2021/09/13 14:45:47;;;;;;;8.45;4.05;;;;;;;;;;5071701;28;20031;-75
2021/09/13 14:48:13;;;;;;;11.48;4.13;;;;;;;;;;5071070;28;20041;-74
2021/09/13 14:50:39;;;;;;;8.20;3.80;;;;;;;;;;5071551;28;20028;-69
2021/09/13 14:53:05;;;;;;;8.05;4.00;;;;;;;;;;5071397;28;20497;-75
2021/09/13 14:55:33;;;;;;;8.57;3.95;;;;;;;;;;5071587;28;20605;-70
2021/09/13 14:57:59;;;;;;;9.35;4.25;;;;;;;;;;5071644;28;20050;-73